Архив погоды в Донецке за Май, 2018 год

icon
Год:Все20022003200420052006200720082009201020112012201320142015201620172018
Месяц:ЯнварьФевральМартАпрельМайИюньДекабрь
Дата Облачность Температура (д/н), °C Давление, мм Влажность, % Ветер, м/с
01.05.2018 Облачность ясно +25 / +12 740 21 В, 4
02.05.2018 Облачность ясно +27 / +14 740 21 С-В, 4
03.05.2018 Облачность ясно +27 / +15 737 30 В, 4
04.05.2018 Облачность ясно +29 / +16 737 25 С-В, 2
05.05.2018 Облачность ясно +28 / +19 736 30 В, 4
06.05.2018 Облачность ясно +28 / +18 735 21 В, 8
07.05.2018 Облачность ясно +25 / +17 734 37 В, 6
08.05.2018 Облачность пасмурно +21 / +18 731 45 С-В, 6
09.05.2018 Облачность ясно +24 / +14 731 29 В, 4
10.05.2018 Облачность пасмурно +24 / +10 734 31 В, 2
11.05.2018 Облачность ясно +17 / +9 737 27 С, 6
12.05.2018 Облачность пасмурно +15 / +10 734 32 С, 2
13.05.2018 Облачность пасмурно +13 / +10 738 77 В, 6
14.05.2018 Облачность дождь +13 / +12 740 93 В, 2
15.05.2018 Облачность пасмурно +22 / +13 741 58 С, 2
16.05.2018 Облачность пасмурно +26 / +16 740 43 Ю, 2
17.05.2018 Облачность пасмурно +26 / +14 740 41 Ю, 4
18.05.2018 Облачность пасмурно +27 / +14 736 40 Ю-З, 6
19.05.2018 Облачность пасмурно +24 / +16 737 44 Ю-З, 4
20.05.2018 Облачность пасмурно +23 / +14 737 48 В, 2
21.05.2018 Облачность пасмурно +15 / +13 739 91 С, 2
22.05.2018 Облачность пасмурно +26 / +16 742 43 С-В, 2
23.05.2018 Облачность ясно +20 / +16 741 85 В, 2
24.05.2018 Облачность пасмурно +26 / +16 737 43 С, 2
25.05.2018 Облачность дождь +23 / +18 740 56 С, 4
26.05.2018 Облачность ясно +22 / +12 747 28 С-В, 7
27.05.2018 Облачность ясно +22 / +12 748 24 В, 4
28.05.2018 Облачность ясно +24 / +13 746 26 С-В, 4
29.05.2018 Облачность ясно +22 / +12 748 25 С-В, 5
30.05.2018 Облачность ясно +24 / +14 746 28 С-В, 2
31.05.2018 Облачность пасмурно +28 / +17 740 25 С-З, 3
icon
Облачность:дождь дождь
Темп. днем:22..24 °C
Темп. ночью:17..19 °C
Давление:740 мм
Влажность:56 %
Ветер:С, 4 м/с
icon
USDusd26,11(+0,02598)
RUBrub0,43(+0,00170)
EUReur30,62(+0,08264)
icon
Пт. 25 Май 2018
icon
Логин:
Код: ---
 
Реклама
icon